Time;durP1;ratioP1;P1;durP2;ratioP2;P2;SDS_P1;SDS_P2;PMS_P1;PMS_P2;Temp;Humidity;BMP_temperature;BMP_pressure;BME280_temperature;BME280_humidity;BME280_pressure;Samples;Min_cycle;Max_cycle;Signal;HPM_P1;HPM_P2
2022/03/14 00:00:28;;;;;;;17.48;10.55;;;;;;;;;;143736;585;46021;-66
2022/03/14 00:02:55;;;;;;;14.43;9.90;;;;;;;;;;143738;576;45910;-66
2022/03/14 00:05:24;;;;;;;16.17;10.20;;;;;;;;;;143743;600;46018;-66
2022/03/14 00:07:51;;;;;;;13.60;9.70;;;;;;;;;;143738;590;46021;-67
2022/03/14 00:10:18;;;;;;;21.02;10.77;;;;;;;;;;143736;564;46919;-66
2022/03/14 00:12:48;;;;;;;17.73;11.45;;;;;;;;;;143739;569;46020;-66
2022/03/14 00:15:17;;;;;;;14.82;10.10;;;;;;;;;;143741;627;45026;-66
2022/03/14 00:17:45;;;;;;;17.75;11.55;;;;;;;;;;143737;567;46023;-66
2022/03/14 00:20:13;;;;;;;15.35;11.25;;;;;;;;;;143736;610;46020;-66
2022/03/14 00:22:41;;;;;;;22.30;10.98;;;;;;;;;;143735;649;45909;-66
2022/03/14 00:25:09;;;;;;;14.45;10.93;;;;;;;;;;143738;592;45021;-67
2022/03/14 00:27:37;;;;;;;15.43;9.73;;;;;;;;;;143733;582;46022;-66
2022/03/14 00:30:10;;;;;;;15.63;10.45;;;;;;;;;;143736;690;46919;-67
2022/03/14 00:32:38;;;;;;;15.95;12.25;;;;;;;;;;143739;609;46010;-66
2022/03/14 00:35:07;;;;;;;13.55;9.40;;;;;;;;;;143738;592;45020;-66
2022/03/14 00:37:35;;;;;;;14.27;9.93;;;;;;;;;;143738;563;46022;-66
2022/03/14 00:40:05;;;;;;;15.07;10.82;;;;;;;;;;143736;587;46919;-67
2022/03/14 00:42:33;;;;;;;16.90;12.32;;;;;;;;;;143739;564;46010;-67
2022/03/14 00:45:00;;;;;;;15.40;12.18;;;;;;;;;;143738;579;46020;-66
2022/03/14 00:47:28;;;;;;;14.98;11.10;;;;;;;;;;143733;586;47020;-66
2022/03/14 00:49:55;;;;;;;18.23;11.88;;;;;;;;;;143731;569;46917;-66
2022/03/14 00:52:22;;;;;;;15.02;10.98;;;;;;;;;;143740;581;46010;-66
2022/03/14 00:54:49;;;;;;;16.27;12.52;;;;;;;;;;143739;690;45021;-66
2022/03/14 00:57:16;;;;;;;17.48;12.00;;;;;;;;;;143739;582;46020;-66
2022/03/14 00:59:43;;;;;;;18.27;12.27;;;;;;;;;;143734;600;46021;-66
2022/03/14 01:02:10;;;;;;;15.40;10.80;;;;;;;;;;143738;715;46021;-67
2022/03/14 01:04:37;;;;;;;18.15;12.00;;;;;;;;;;143737;584;46020;-66
2022/03/14 01:07:04;;;;;;;16.25;10.50;;;;;;;;;;143740;566;46020;-66
2022/03/14 01:09:32;;;;;;;16.87;11.50;;;;;;;;;;143736;601;46021;-67
2022/03/14 01:11:59;;;;;;;14.20;9.82;;;;;;;;;;143733;624;46010;-66
2022/03/14 01:14:27;;;;;;;18.48;10.25;;;;;;;;;;143738;584;46020;-66
2022/03/14 01:16:54;;;;;;;13.00;9.27;;;;;;;;;;143738;574;46021;-68
2022/03/14 01:19:21;;;;;;;15.93;10.70;;;;;;;;;;143736;595;46918;-67
2022/03/14 01:21:49;;;;;;;13.57;10.75;;;;;;;;;;143740;633;46010;-68
2022/03/14 01:24:16;;;;;;;15.85;11.63;;;;;;;;;;143739;625;46021;-66
2022/03/14 01:26:43;;;;;;;18.10;11.75;;;;;;;;;;143738;577;47029;-66
2022/03/14 01:29:10;;;;;;;20.60;12.93;;;;;;;;;;143737;589;46917;-67
2022/03/14 01:31:38;;;;;;;30.35;14.57;;;;;;;;;;143736;579;45909;-66
2022/03/14 01:34:05;;;;;;;39.33;17.33;;;;;;;;;;143737;585;45020;-66
2022/03/14 01:36:32;;;;;;;43.78;18.60;;;;;;;;;;143737;597;46020;-66
2022/03/14 01:39:00;;;;;;;50.55;19.25;;;;;;;;;;143734;676;46010;-66
2022/03/14 01:41:28;;;;;;;46.28;22.02;;;;;;;;;;143735;573;46020;-66
2022/03/14 01:43:56;;;;;;;40.22;20.15;;;;;;;;;;143736;570;46020;-68
2022/03/14 01:46:23;;;;;;;54.80;24.67;;;;;;;;;;143734;614;46021;-67
2022/03/14 01:48:51;;;;;;;58.58;26.42;;;;;;;;;;143731;700;46917;-66
2022/03/14 01:51:18;;;;;;;72.50;32.08;;;;;;;;;;143736;753;45909;-66
2022/03/14 01:53:45;;;;;;;79.22;34.47;;;;;;;;;;143741;705;45021;-66
2022/03/14 01:56:13;;;;;;;63.28;27.02;;;;;;;;;;143734;597;46020;-66
2022/03/14 01:58:41;;;;;;;67.57;30.00;;;;;;;;;;143734;596;46020;-66
2022/03/14 02:01:08;;;;;;;77.55;32.92;;;;;;;;;;143735;659;46011;-66
2022/03/14 02:03:35;;;;;;;63.55;29.52;;;;;;;;;;143735;690;45020;-67
2022/03/14 02:06:02;;;;;;;75.03;32.88;;;;;;;;;;143733;640;46020;-66
2022/03/14 02:08:29;;;;;;;71.43;31.20;;;;;;;;;;143732;583;46918;-67
2022/03/14 02:10:56;;;;;;;50.47;20.77;;;;;;;;;;143740;597;45909;-66
2022/03/14 02:13:24;;;;;;;59.83;29.55;;;;;;;;;;143737;564;46020;-67
2022/03/14 02:15:51;;;;;;;54.70;26.50;;;;;;;;;;143733;612;46021;-67
2022/03/14 02:18:18;;;;;;;40.75;22.67;;;;;;;;;;143732;642;46020;-67
2022/03/14 02:20:46;;;;;;;34.17;19.23;;;;;;;;;;143732;601;46020;-67
2022/03/14 02:23:13;;;;;;;35.13;22.13;;;;;;;;;;143736;576;45021;-68
2022/03/14 02:25:51;;;;;;;34.33;19.67;;;;;;;;;;143735;567;46020;-67
2022/03/14 02:28:20;;;;;;;33.60;20.55;;;;;;;;;;143733;738;46020;-68
2022/03/14 02:30:47;;;;;;;38.03;19.67;;;;;;;;;;143734;593;46011;-68
2022/03/14 02:33:14;;;;;;;30.73;19.10;;;;;;;;;;143740;570;45020;-68
2022/03/14 02:35:42;;;;;;;37.42;19.05;;;;;;;;;;143737;646;46020;-68
2022/03/14 02:38:14;;;;;;;32.03;19.15;;;;;;;;;;143735;583;46917;-67
2022/03/14 02:40:48;;;;;;;37.80;19.87;;;;;;;;;;143740;588;46010;-67
2022/03/14 02:43:24;;;;;;;29.20;17.58;;;;;;;;;;143738;593;45020;-67
2022/03/14 02:45:51;;;;;;;32.70;19.62;;;;;;;;;;143734;646;47022;-66
2022/03/14 02:48:19;;;;;;;30.75;18.27;;;;;;;;;;143735;722;46917;-66
2022/03/14 02:50:48;;;;;;;33.58;18.20;;;;;;;;;;143734;587;46010;-68
2022/03/14 02:53:15;;;;;;;28.00;18.12;;;;;;;;;;143735;655;46020;-67
2022/03/14 02:55:42;;;;;;;30.45;18.40;;;;;;;;;;143737;581;46023;-67
2022/03/14 02:58:09;;;;;;;33.50;17.52;;;;;;;;;;143732;689;46917;-67
2022/03/14 03:00:36;;;;;;;25.50;16.05;;;;;;;;;;143737;576;46021;-66
2022/03/14 03:03:06;;;;;;;32.30;17.65;;;;;;;;;;143736;614;46020;-67
2022/03/14 03:05:36;;;;;;;26.25;15.23;;;;;;;;;;143734;641;47020;-67
2022/03/14 03:08:04;;;;;;;28.55;14.50;;;;;;;;;;143736;615;47011;-67
2022/03/14 03:10:33;;;;;;;26.15;14.68;;;;;;;;;;143735;605;46010;-67
2022/03/14 03:13:00;;;;;;;29.30;14.73;;;;;;;;;;143742;586;45020;-67
2022/03/14 03:15:27;;;;;;;29.73;14.50;;;;;;;;;;143734;591;46021;-68
2022/03/14 03:17:54;;;;;;;23.52;13.80;;;;;;;;;;143735;576;46917;-67
2022/03/14 03:20:21;;;;;;;28.58;15.80;;;;;;;;;;143736;604;45909;-67
2022/03/14 03:22:48;;;;;;;28.42;15.93;;;;;;;;;;143735;660;45021;-66
2022/03/14 03:25:15;;;;;;;26.33;14.93;;;;;;;;;;143733;588;47020;-67
2022/03/14 03:27:42;;;;;;;22.90;15.48;;;;;;;;;;143732;569;46020;-67
2022/03/14 03:30:10;;;;;;;25.20;15.13;;;;;;;;;;143738;719;45021;-67
2022/03/14 03:32:37;;;;;;;19.20;13.98;;;;;;;;;;143741;605;46020;-67
2022/03/14 03:35:04;;;;;;;29.00;16.90;;;;;;;;;;143738;595;46020;-66
2022/03/14 03:37:31;;;;;;;27.67;17.30;;;;;;;;;;143738;593;46020;-67
2022/03/14 03:39:59;;;;;;;26.83;16.62;;;;;;;;;;143734;570;46010;-68
2022/03/14 03:42:26;;;;;;;26.95;17.45;;;;;;;;;;143735;606;45020;-66
2022/03/14 03:44:53;;;;;;;26.62;16.87;;;;;;;;;;143733;605;46021;-68
2022/03/14 03:47:20;;;;;;;23.17;14.65;;;;;;;;;;143736;596;46020;-66
2022/03/14 03:49:47;;;;;;;21.62;14.23;;;;;;;;;;143734;585;46010;-66
2022/03/14 03:52:14;;;;;;;25.00;14.68;;;;;;;;;;143737;632;45023;-67
2022/03/14 03:54:41;;;;;;;21.52;13.82;;;;;;;;;;143735;609;47020;-67
2022/03/14 03:57:08;;;;;;;25.27;14.27;;;;;;;;;;143736;569;46917;-67
2022/03/14 03:59:35;;;;;;;28.50;14.65;;;;;;;;;;143731;576;47021;-66
2022/03/14 04:02:02;;;;;;;23.55;12.63;;;;;;;;;;143731;601;46020;-66
2022/03/14 04:04:30;;;;;;;22.17;13.13;;;;;;;;;;143730;602;46020;-67
2022/03/14 04:06:57;;;;;;;22.95;11.63;;;;;;;;;;143737;608;46020;-67
2022/03/14 04:09:26;;;;;;;19.83;12.85;;;;;;;;;;143739;586;46010;-66
2022/03/14 04:11:52;;;;;;;22.33;12.57;;;;;;;;;;143734;589;46020;-66
2022/03/14 04:14:21;;;;;;;18.60;11.15;;;;;;;;;;143733;574;46022;-66
2022/03/14 04:16:48;;;;;;;18.40;11.15;;;;;;;;;;143736;695;46020;-66
2022/03/14 04:19:18;;;;;;;19.27;11.65;;;;;;;;;;143739;577;46010;-66
2022/03/14 04:21:49;;;;;;;18.00;11.55;;;;;;;;;;143741;587;45021;-67
2022/03/14 04:24:16;;;;;;;15.88;10.65;;;;;;;;;;143740;574;46020;-68
2022/03/14 04:26:43;;;;;;;16.27;10.82;;;;;;;;;;143735;579;46020;-67
2022/03/14 04:29:10;;;;;;;19.30;10.88;;;;;;;;;;143735;757;46010;-67
2022/03/14 04:31:37;;;;;;;19.50;11.07;;;;;;;;;;143737;569;46021;-67
2022/03/14 04:34:04;;;;;;;19.58;11.48;;;;;;;;;;143738;584;46022;-66
2022/03/14 04:36:32;;;;;;;19.08;11.32;;;;;;;;;;143737;603;46021;-66
2022/03/14 04:38:59;;;;;;;20.02;12.75;;;;;;;;;;143739;566;46010;-68
2022/03/14 04:41:26;;;;;;;20.65;12.48;;;;;;;;;;143736;579;46020;-66
2022/03/14 04:43:53;;;;;;;22.92;13.23;;;;;;;;;;143734;593;46021;-67
2022/03/14 04:46:20;;;;;;;19.58;12.23;;;;;;;;;;143737;578;46021;-66
2022/03/14 04:48:47;;;;;;;17.00;11.10;;;;;;;;;;143739;566;46010;-66
2022/03/14 04:51:14;;;;;;;15.70;10.85;;;;;;;;;;143741;767;46011;-66
2022/03/14 04:53:41;;;;;;;17.20;11.45;;;;;;;;;;143735;564;46020;-68
2022/03/14 04:56:08;;;;;;;16.33;11.12;;;;;;;;;;143737;594;46020;-66
2022/03/14 04:58:35;;;;;;;25.17;11.73;;;;;;;;;;143740;591;46020;-66
2022/03/14 05:01:03;;;;;;;15.82;11.38;;;;;;;;;;143740;596;46021;-66
2022/03/14 05:03:30;;;;;;;18.30;11.40;;;;;;;;;;143739;574;46020;-66
2022/03/14 05:05:57;;;;;;;20.52;11.63;;;;;;;;;;143736;589;46917;-66
2022/03/14 05:08:24;;;;;;;45.67;13.20;;;;;;;;;;143740;601;46010;-67
2022/03/14 05:10:51;;;;;;;21.10;12.13;;;;;;;;;;143736;586;46020;-66
2022/03/14 05:13:18;;;;;;;20.45;12.82;;;;;;;;;;143739;585;46021;-68
2022/03/14 05:15:45;;;;;;;15.25;9.93;;;;;;;;;;143733;607;46917;-67
2022/03/14 05:18:12;;;;;;;23.00;12.98;;;;;;;;;;143733;575;46020;-67
2022/03/14 05:20:39;;;;;;;22.10;13.45;;;;;;;;;;143735;573;46020;-67
2022/03/14 05:23:06;;;;;;;21.40;11.98;;;;;;;;;;143736;606;46010;-67
2022/03/14 05:25:33;;;;;;;20.90;13.60;;;;;;;;;;143735;608;46917;-68
2022/03/14 05:28:00;;;;;;;19.40;11.77;;;;;;;;;;143736;591;45909;-67
2022/03/14 05:30:28;;;;;;;17.73;11.68;;;;;;;;;;143740;575;46021;-67
2022/03/14 05:32:55;;;;;;;32.65;24.45;;;;;;;;;;143736;565;46022;-67
2022/03/14 05:35:22;;;;;;;28.10;21.55;;;;;;;;;;143733;593;46020;-66
2022/03/14 05:37:49;;;;;;;21.95;15.80;;;;;;;;;;143738;565;46021;-65
2022/03/14 05:40:20;;;;;;;22.15;12.85;;;;;;;;;;143738;593;46020;-67
2022/03/14 05:42:48;;;;;;;20.65;12.80;;;;;;;;;;143737;603;46020;-65
2022/03/14 05:45:17;;;;;;;25.00;14.63;;;;;;;;;;143737;734;46021;-66
2022/03/14 05:47:46;;;;;;;18.77;13.30;;;;;;;;;;143736;574;46010;-66
2022/03/14 05:50:13;;;;;;;23.70;12.95;;;;;;;;;;143741;563;46010;-66
2022/03/14 05:52:40;;;;;;;17.50;13.02;;;;;;;;;;143736;711;46021;-66
2022/03/14 05:55:08;;;;;;;18.67;12.20;;;;;;;;;;143737;574;46020;-66
2022/03/14 05:57:35;;;;;;;20.00;13.05;;;;;;;;;;143738;626;46010;-66
2022/03/14 06:00:04;;;;;;;19.65;12.02;;;;;;;;;;143742;609;45021;-67
2022/03/14 06:02:31;;;;;;;17.90;12.50;;;;;;;;;;143739;583;47020;-66
2022/03/14 06:04:58;;;;;;;18.95;11.30;;;;;;;;;;143733;567;47010;-66
2022/03/14 06:07:25;;;;;;;17.17;11.43;;;;;;;;;;143733;565;46021;-66
2022/03/14 06:09:52;;;;;;;22.10;14.05;;;;;;;;;;143740;570;46020;-67
2022/03/14 06:12:26;;;;;;;22.80;14.90;;;;;;;;;;143738;579;46020;-66
2022/03/14 06:14:54;;;;;;;34.92;18.30;;;;;;;;;;143731;711;46918;-66
2022/03/14 06:17:21;;;;;;;31.95;17.85;;;;;;;;;;143735;573;46010;-67
2022/03/14 06:19:49;;;;;;;21.35;13.48;;;;;;;;;;143736;579;45020;-67
2022/03/14 06:22:17;;;;;;;31.12;15.40;;;;;;;;;;143737;585;46023;-66
2022/03/14 06:24:46;;;;;;;21.20;15.23;;;;;;;;;;143738;612;46020;-67
2022/03/14 06:27:14;;;;;;;22.05;14.02;;;;;;;;;;143741;632;46010;-67
2022/03/14 06:29:42;;;;;;;25.45;14.95;;;;;;;;;;143737;569;46021;-66
2022/03/14 06:32:10;;;;;;;16.60;12.75;;;;;;;;;;143732;587;47023;-67
2022/03/14 06:34:37;;;;;;;21.25;14.48;;;;;;;;;;143736;587;46917;-68
2022/03/14 06:37:09;;;;;;;20.50;14.23;;;;;;;;;;143737;586;46021;-67
2022/03/14 06:39:37;;;;;;;18.52;13.07;;;;;;;;;;143738;570;45020;-68
2022/03/14 06:42:09;;;;;;;25.48;14.27;;;;;;;;;;143741;590;46020;-66
2022/03/14 06:44:41;;;;;;;22.45;15.32;;;;;;;;;;143732;613;46917;-66
2022/03/14 06:47:10;;;;;;;25.23;15.23;;;;;;;;;;143738;578;45853;-66
2022/03/14 06:49:37;;;;;;;24.63;15.68;;;;;;;;;;143737;692;46020;-66
2022/03/14 06:52:05;;;;;;;25.90;17.17;;;;;;;;;;143728;665;48021;-66
2022/03/14 06:54:32;;;;;;;29.55;19.08;;;;;;;;;;143735;600;46917;-67
2022/03/14 06:56:59;;;;;;;26.98;17.08;;;;;;;;;;143735;585;45909;-66
2022/03/14 06:59:26;;;;;;;30.80;18.92;;;;;;;;;;143742;589;46022;-67
2022/03/14 07:01:53;;;;;;;32.80;17.20;;;;;;;;;;143738;579;46010;-66
2022/03/14 07:04:20;;;;;;;30.27;15.90;;;;;;;;;;143736;573;46919;-67
2022/03/14 07:06:47;;;;;;;33.58;17.60;;;;;;;;;;143735;642;46019;-66
2022/03/14 07:09:15;;;;;;;34.53;17.05;;;;;;;;;;143738;585;45022;-66
2022/03/14 07:11:42;;;;;;;24.98;15.20;;;;;;;;;;143731;584;46020;-67
2022/03/14 07:14:09;;;;;;;31.15;18.10;;;;;;;;;;143735;581;46919;-67
2022/03/14 07:16:36;;;;;;;28.90;18.00;;;;;;;;;;143740;564;46908;-68
2022/03/14 07:19:05;;;;;;;28.50;17.20;;;;;;;;;;143738;664;45028;-67
2022/03/14 07:21:34;;;;;;;25.60;16.48;;;;;;;;;;143736;575;46020;-67
2022/03/14 07:24:04;;;;;;;24.58;15.88;;;;;;;;;;143736;606;46010;-67
2022/03/14 07:26:32;;;;;;;28.38;18.02;;;;;;;;;;143737;605;46018;-67
2022/03/14 07:29:01;;;;;;;25.73;16.37;;;;;;;;;;143738;576;46023;-67
2022/03/14 07:31:41;;;;;;;21.42;14.18;;;;;;;;;;143739;587;45020;-67
2022/03/14 07:34:49;;;;;;;26.65;15.93;;;;;;;;;;143742;599;46919;-67
2022/03/14 07:47:48;;;;;;;16.20;12.00;;;;;;;;;;143750;578;45020;-67
2022/03/14 08:01:09;;;;;;;15.98;11.50;;;;;;;;;;143743;578;45023;-68
2022/03/14 08:03:50;;;;;;;16.98;10.00;;;;;;;;;;143742;575;45912;-67
2022/03/14 08:06:41;;;;;;;20.42;10.25;;;;;;;;;;143743;618;45921;-67
2022/03/14 08:09:32;;;;;;;17.02;10.90;;;;;;;;;;143730;565;47012;-67
2022/03/14 08:19:52;;;;;;;19.67;13.75;;;;;;;;;;143731;574;46010;-68
2022/03/14 08:22:28;;;;;;;25.77;14.20;;;;;;;;;;143733;584;45023;-69
2022/03/14 08:25:17;;;;;;;20.65;12.82;;;;;;;;;;143732;626;45020;-67
2022/03/14 08:28:03;;;;;;;15.15;11.35;;;;;;;;;;143731;675;45922;-69
2022/03/14 08:48:32;;;;;;;15.88;10.82;;;;;;;;;;143726;581;46022;-69
2022/03/14 08:50:58;;;;;;;19.10;10.88;;;;;;;;;;143729;566;46011;-68
2022/03/14 08:53:25;;;;;;;14.52;10.20;;;;;;;;;;143726;602;46022;-69
2022/03/14 08:55:55;;;;;;;11.95;8.45;;;;;;;;;;143728;597;46020;-68
2022/03/14 08:58:25;;;;;;;12.57;8.63;;;;;;;;;;143727;572;46920;-67
2022/03/14 09:00:52;;;;;;;14.93;9.82;;;;;;;;;;143729;576;45910;-67
2022/03/14 09:03:18;;;;;;;12.98;8.20;;;;;;;;;;143726;584;48010;-68
2022/03/14 09:05:46;;;;;;;15.45;9.20;;;;;;;;;;143728;619;46019;-66
2022/03/14 09:08:13;;;;;;;12.82;9.63;;;;;;;;;;143732;618;46921;-66
2022/03/14 09:10:50;;;;;;;15.73;9.07;;;;;;;;;;143744;579;45910;-67
2022/03/14 09:13:29;;;;;;;16.50;10.07;;;;;;;;;;143747;581;45023;-67
2022/03/14 09:16:26;;;;;;;16.48;9.38;;;;;;;;;;143743;581;45911;-68
2022/03/14 09:19:12;;;;;;;16.35;9.40;;;;;;;;;;143735;501;45920;-67
2022/03/14 09:34:29;;;;;;;10.57;7.43;;;;;;;;;;143744;564;46010;-70
2022/03/14 09:36:56;;;;;;;13.98;8.02;;;;;;;;;;143741;617;46012;-67
2022/03/14 09:39:23;;;;;;;10.43;8.15;;;;;;;;;;143737;610;46920;-67
2022/03/14 09:41:53;;;;;;;12.63;8.68;;;;;;;;;;143743;571;45910;-66
2022/03/14 09:44:21;;;;;;;11.45;7.00;;;;;;;;;;143744;583;45023;-66
2022/03/14 09:46:49;;;;;;;13.05;6.80;;;;;;;;;;143744;564;46018;-67
2022/03/14 09:49:17;;;;;;;8.05;6.30;;;;;;;;;;143741;586;46022;-68
2022/03/14 09:51:44;;;;;;;9.05;7.10;;;;;;;;;;143743;572;46018;-67
2022/03/14 09:54:12;;;;;;;18.67;8.23;;;;;;;;;;143745;585;46022;-67
2022/03/14 09:56:43;;;;;;;12.05;8.82;;;;;;;;;;143737;569;46019;-67
2022/03/14 09:59:15;;;;;;;17.52;9.10;;;;;;;;;;143741;581;46023;-66
2022/03/14 10:01:42;;;;;;;12.02;7.65;;;;;;;;;;143743;571;46018;-67
2022/03/14 10:04:10;;;;;;;13.77;8.45;;;;;;;;;;143743;586;46022;-67
2022/03/14 10:06:39;;;;;;;12.70;7.78;;;;;;;;;;143741;573;46018;-68
2022/03/14 10:09:06;;;;;;;16.02;8.50;;;;;;;;;;143743;582;46010;-67
2022/03/14 10:11:34;;;;;;;16.45;8.63;;;;;;;;;;143739;595;46018;-67
2022/03/14 10:14:04;;;;;;;12.77;8.80;;;;;;;;;;143741;586;46023;-67
2022/03/14 10:16:32;;;;;;;10.45;7.93;;;;;;;;;;143738;588;47018;-67
2022/03/14 10:19:07;;;;;;;12.82;9.27;;;;;;;;;;143739;620;46010;-67
2022/03/14 10:21:42;;;;;;;13.30;8.43;;;;;;;;;;143739;564;45027;-67
2022/03/14 10:24:11;;;;;;;13.68;7.40;;;;;;;;;;143742;582;46022;-67
2022/03/14 10:26:42;;;;;;;10.32;6.95;;;;;;;;;;143744;570;46020;-69
2022/03/14 10:29:12;;;;;;;13.10;8.15;;;;;;;;;;143739;664;46023;-67
2022/03/14 10:31:54;;;;;;;10.65;7.75;;;;;;;;;;143745;578;45910;-69
2022/03/14 10:34:22;;;;;;;12.30;7.72;;;;;;;;;;143743;590;46022;-67
2022/03/14 10:36:57;;;;;;;10.20;7.35;;;;;;;;;;143743;614;46010;-67
2022/03/14 10:39:31;;;;;;;9.90;7.70;;;;;;;;;;143739;583;46920;-67
2022/03/14 10:42:16;;;;;;;10.50;7.62;;;;;;;;;;143743;757;46010;-67
2022/03/14 10:44:44;;;;;;;9.95;7.25;;;;;;;;;;143744;638;45022;-69
2022/03/14 10:47:13;;;;;;;16.30;8.68;;;;;;;;;;143736;563;46018;-68
2022/03/14 10:49:43;;;;;;;11.50;8.32;;;;;;;;;;143740;586;46023;-68
2022/03/14 10:52:13;;;;;;;12.00;7.22;;;;;;;;;;143742;573;46018;-67
2022/03/14 10:54:42;;;;;;;14.07;8.10;;;;;;;;;;143743;732;46022;-68
2022/03/14 10:57:30;;;;;;;11.15;8.07;;;;;;;;;;143743;580;46039;-67
2022/03/14 10:59:57;;;;;;;14.00;7.35;;;;;;;;;;143742;665;45920;-67
2022/03/14 11:02:25;;;;;;;12.18;7.75;;;;;;;;;;143742;576;46010;-67
2022/03/14 11:04:57;;;;;;;13.10;8.13;;;;;;;;;;143743;570;45023;-69
2022/03/14 11:07:31;;;;;;;9.93;6.28;;;;;;;;;;143743;580;46018;-67
2022/03/14 11:10:04;;;;;;;9.45;6.45;;;;;;;;;;143741;573;46022;-69
2022/03/14 11:12:31;;;;;;;13.48;8.00;;;;;;;;;;143737;657;46019;-68
2022/03/14 11:15:00;;;;;;;11.48;7.47;;;;;;;;;;143739;591;46022;-67
2022/03/14 11:17:31;;;;;;;11.43;6.75;;;;;;;;;;143742;587;46020;-66
2022/03/14 11:19:59;;;;;;;9.93;6.28;;;;;;;;;;143740;573;46023;-69
2022/03/14 11:22:28;;;;;;;8.77;6.32;;;;;;;;;;143743;601;45910;-67
2022/03/14 11:24:57;;;;;;;9.57;6.50;;;;;;;;;;143743;582;47022;-69
2022/03/14 11:27:25;;;;;;;8.45;6.12;;;;;;;;;;143747;621;45020;-68
2022/03/14 11:29:54;;;;;;;9.60;6.25;;;;;;;;;;143743;587;46010;-67
2022/03/14 11:32:22;;;;;;;9.05;6.62;;;;;;;;;;143744;618;46010;-69
2022/03/14 11:34:50;;;;;;;12.75;6.75;;;;;;;;;;143743;587;46022;-68
2022/03/14 11:37:18;;;;;;;10.57;6.85;;;;;;;;;;143736;606;47018;-68
2022/03/14 11:39:46;;;;;;;11.98;7.30;;;;;;;;;;143740;565;46022;-68
2022/03/14 11:42:15;;;;;;;12.07;6.97;;;;;;;;;;143741;601;45910;-68
2022/03/14 11:44:45;;;;;;;13.23;7.28;;;;;;;;;;143740;596;47022;-67
2022/03/14 11:47:14;;;;;;;10.82;7.20;;;;;;;;;;143738;572;46018;-69
2022/03/14 11:49:42;;;;;;;9.70;6.90;;;;;;;;;;143739;596;46023;-67
2022/03/14 11:52:18;;;;;;;8.73;7.12;;;;;;;;;;143742;618;45910;-66
2022/03/14 11:54:52;;;;;;;11.77;7.03;;;;;;;;;;143744;612;45022;-67
2022/03/14 11:57:43;;;;;;;11.68;6.97;;;;;;;;;;143739;585;47018;-67
2022/03/14 12:00:47;;;;;;;10.93;7.10;;;;;;;;;;143736;590;46921;-67
2022/03/14 12:03:37;;;;;;;13.43;7.30;;;;;;;;;;143736;576;45908;-67
2022/03/14 12:06:05;;;;;;;9.73;7.18;;;;;;;;;;143740;614;46010;-67
2022/03/14 12:08:52;;;;;;;14.52;7.70;;;;;;;;;;143740;575;46020;-68
2022/03/14 12:11:40;;;;;;;9.25;6.40;;;;;;;;;;143735;564;46920;-68
2022/03/14 12:14:11;;;;;;;12.10;7.20;;;;;;;;;;143739;613;46036;-67
2022/03/14 12:16:44;;;;;;;9.20;7.05;;;;;;;;;;143741;578;45023;-67
2022/03/14 12:19:30;;;;;;;10.18;7.53;;;;;;;;;;143740;585;46019;-67
2022/03/14 12:22:03;;;;;;;13.05;6.53;;;;;;;;;;143738;612;46022;-67
2022/03/14 12:24:49;;;;;;;10.18;7.05;;;;;;;;;;143740;573;45910;-68
2022/03/14 12:27:22;;;;;;;10.50;6.82;;;;;;;;;;143740;598;46023;-68
2022/03/14 12:29:50;;;;;;;13.00;7.70;;;;;;;;;;143734;601;46018;-67
2022/03/14 12:32:31;;;;;;;15.82;7.53;;;;;;;;;;143739;593;46010;-68
2022/03/14 12:35:38;;;;;;;11.10;7.57;;;;;;;;;;143740;569;46010;-68
2022/03/14 12:38:15;;;;;;;11.88;7.50;;;;;;;;;;143740;571;46010;-67
2022/03/14 12:40:44;;;;;;;10.65;6.87;;;;;;;;;;143739;589;46020;-67
2022/03/14 12:43:25;;;;;;;11.00;6.80;;;;;;;;;;143739;628;46923;-67
2022/03/14 12:45:59;;;;;;;12.80;7.37;;;;;;;;;;143741;569;46018;-67
2022/03/14 12:48:34;;;;;;;12.98;6.30;;;;;;;;;;143740;582;46022;-68
2022/03/14 12:51:04;;;;;;;;;;;;;;;;;;143738;983;46018;-68
2022/03/14 12:53:44;;;;;;;10.40;7.10;;;;;;;;;;143744;608;46937;-67
2022/03/14 12:56:16;;;;;;;8.88;6.22;;;;;;;;;;143743;638;45912;-68
2022/03/14 12:58:54;;;;;;;9.25;6.65;;;;;;;;;;143740;641;46022;-68
2022/03/14 13:01:21;;;;;;;8.50;6.10;;;;;;;;;;143741;601;47018;-67
2022/03/14 13:03:48;;;;;;;9.38;5.90;;;;;;;;;;143737;607;46922;-67
2022/03/14 13:06:16;;;;;;;9.63;6.85;;;;;;;;;;143744;571;45912;-67
2022/03/14 13:08:49;;;;;;;10.15;6.40;;;;;;;;;;143742;585;46010;-67
2022/03/14 13:11:18;;;;;;;10.00;6.40;;;;;;;;;;143741;588;46019;-67
2022/03/14 13:13:45;;;;;;;9.60;6.62;;;;;;;;;;143740;577;46022;-68
2022/03/14 13:16:18;;;;;;;8.40;5.87;;;;;;;;;;143741;637;45888;-68
2022/03/14 13:18:50;;;;;;;12.15;7.12;;;;;;;;;;143742;622;46022;-67
2022/03/14 13:21:23;;;;;;;10.27;6.57;;;;;;;;;;143736;719;45916;-67
2022/03/14 13:23:58;;;;;;;9.02;6.10;;;;;;;;;;143738;577;47022;-67
2022/03/14 13:26:26;;;;;;;9.38;6.80;;;;;;;;;;143741;664;46011;-67
2022/03/14 13:28:54;;;;;;;10.35;6.95;;;;;;;;;;143743;615;45023;-66
2022/03/14 13:31:54;;;;;;;8.95;6.00;;;;;;;;;;143741;620;46020;-67
2022/03/14 13:34:23;;;;;;;14.55;8.38;;;;;;;;;;143739;587;46023;-69
2022/03/14 13:36:53;;;;;;;11.52;7.40;;;;;;;;;;143742;721;46018;-69
2022/03/14 13:39:22;;;;;;;10.07;6.70;;;;;;;;;;143741;563;46022;-69
2022/03/14 13:41:50;;;;;;;8.95;6.40;;;;;;;;;;143741;660;46019;-68
2022/03/14 13:44:21;;;;;;;9.80;7.10;;;;;;;;;;143740;651;46022;-69
2022/03/14 13:46:52;;;;;;;10.80;6.97;;;;;;;;;;143741;583;45912;-69
2022/03/14 13:49:25;;;;;;;9.30;6.62;;;;;;;;;;143745;569;45023;-68
2022/03/14 13:52:00;;;;;;;10.70;6.28;;;;;;;;;;143741;607;46018;-67
2022/03/14 13:54:29;;;;;;;9.65;6.72;;;;;;;;;;143738;691;46022;-67
2022/03/14 13:57:16;;;;;;;10.40;6.30;;;;;;;;;;143741;584;45912;-67
2022/03/14 13:59:46;;;;;;;9.75;6.82;;;;;;;;;;143742;627;45024;-67
2022/03/14 14:02:21;;;;;;;12.37;6.95;;;;;;;;;;143742;619;46010;-69
2022/03/14 14:04:50;;;;;;;10.65;6.32;;;;;;;;;;143738;566;46023;-68
2022/03/14 14:07:19;;;;;;;12.10;7.18;;;;;;;;;;143739;614;45912;-67
2022/03/14 14:09:48;;;;;;;9.80;7.15;;;;;;;;;;143740;566;46022;-67
2022/03/14 14:12:23;;;;;;;10.70;6.95;;;;;;;;;;143737;588;46033;-67
2022/03/14 14:15:11;;;;;;;11.45;7.03;;;;;;;;;;143736;578;46922;-67
2022/03/14 14:17:44;;;;;;;11.95;7.35;;;;;;;;;;143741;625;45910;-68
2022/03/14 14:20:31;;;;;;;9.02;6.53;;;;;;;;;;143742;648;45023;-67
2022/03/14 14:22:59;;;;;;;9.60;6.78;;;;;;;;;;143741;583;46020;-68
2022/03/14 14:25:33;;;;;;;8.27;6.10;;;;;;;;;;143740;583;46022;-67
2022/03/14 14:28:11;;;;;;;8.13;6.57;;;;;;;;;;143742;577;46018;-69
2022/03/14 14:31:04;;;;;;;8.90;6.60;;;;;;;;;;143741;696;46022;-65
2022/03/14 14:33:35;;;;;;;14.18;7.80;;;;;;;;;;143742;646;46019;-66
2022/03/14 14:36:04;;;;;;;10.45;6.80;;;;;;;;;;143739;573;46022;-66
2022/03/14 14:38:35;;;;;;;9.70;6.87;;;;;;;;;;143735;590;46010;-67
2022/03/14 14:41:09;;;;;;;10.85;6.90;;;;;;;;;;143742;607;46023;-66
2022/03/14 14:43:36;;;;;;;9.68;6.30;;;;;;;;;;143741;583;46037;-65
2022/03/14 14:46:04;;;;;;;10.77;6.60;;;;;;;;;;143740;589;46022;-67
2022/03/14 14:48:38;;;;;;;11.32;7.37;;;;;;;;;;143740;658;46019;-66
2022/03/14 14:51:06;;;;;;;10.55;7.20;;;;;;;;;;143742;577;45023;-66
2022/03/14 14:53:35;;;;;;;8.07;5.97;;;;;;;;;;143743;591;46018;-66
2022/03/14 14:56:02;;;;;;;8.63;6.47;;;;;;;;;;143737;589;46922;-66
2022/03/14 14:58:31;;;;;;;9.75;6.95;;;;;;;;;;143741;745;46012;-65
2022/03/14 15:00:58;;;;;;;9.05;6.10;;;;;;;;;;143744;573;45022;-67
2022/03/14 15:03:25;;;;;;;9.77;6.62;;;;;;;;;;143740;668;47019;-66
2022/03/14 15:05:52;;;;;;;10.65;6.32;;;;;;;;;;143738;680;46923;-66
2022/03/14 15:08:19;;;;;;;10.23;6.25;;;;;;;;;;143741;586;45914;-66
2022/03/14 15:10:46;;;;;;;10.52;6.82;;;;;;;;;;143743;564;45023;-66
2022/03/14 15:13:13;;;;;;;9.57;6.90;;;;;;;;;;143740;569;46020;-66
2022/03/14 15:15:40;;;;;;;12.88;7.57;;;;;;;;;;143738;614;46922;-66
2022/03/14 15:18:07;;;;;;;12.30;6.47;;;;;;;;;;143742;567;45914;-66
2022/03/14 15:20:34;;;;;;;9.38;5.93;;;;;;;;;;143736;573;47012;-66
2022/03/14 15:23:02;;;;;;;9.10;6.82;;;;;;;;;;143741;608;46018;-67
2022/03/14 15:25:28;;;;;;;9.90;6.68;;;;;;;;;;143739;631;46022;-67
2022/03/14 15:27:55;;;;;;;9.75;6.70;;;;;;;;;;143737;591;46018;-67
2022/03/14 15:30:23;;;;;;;9.25;6.37;;;;;;;;;;143742;643;45022;-66
2022/03/14 15:32:50;;;;;;;10.98;7.93;;;;;;;;;;143740;581;46020;-66
2022/03/14 15:35:18;;;;;;;11.68;6.75;;;;;;;;;;143738;679;46022;-66
2022/03/14 15:37:45;;;;;;;9.95;6.90;;;;;;;;;;143741;592;46012;-68
2022/03/14 15:40:14;;;;;;;8.48;6.10;;;;;;;;;;143741;591;46022;-68
2022/03/14 15:42:41;;;;;;;8.20;5.62;;;;;;;;;;143741;579;46018;-66